createdAt,value
2022-09-20T00:01:30.014Z,5.20
2022-09-20T00:03:58.830Z,4.03
2022-09-20T00:06:29.891Z,5.38
2022-09-20T00:08:57.120Z,6.65
2022-09-20T00:11:28.980Z,4.65
2022-09-20T00:13:58.423Z,3.05
2022-09-20T00:16:31.290Z,2.60
2022-09-20T00:18:59.504Z,3.67
2022-09-20T00:21:28.917Z,3.80
2022-09-20T00:23:57.595Z,5.18
2022-09-20T00:26:26.010Z,4.13
2022-09-20T00:28:52.874Z,3.92
2022-09-20T00:31:19.635Z,3.17
2022-09-20T00:34:06.269Z,3.20
2022-09-20T00:36:33.014Z,4.72
2022-09-20T00:39:02.772Z,2.67
2022-09-20T00:41:31.771Z,2.67
2022-09-20T00:44:01.310Z,4.35
2022-09-20T00:46:34.760Z,2.55
2022-09-20T00:49:14.884Z,7.55
2022-09-20T00:51:46.941Z,4.78
2022-09-20T00:54:20.301Z,2.30
2022-09-20T00:56:48.486Z,3.75
2022-09-20T00:59:19.870Z,3.33
2022-09-20T01:01:52.254Z,3.78
2022-09-20T01:04:22.019Z,1.92
2022-09-20T01:06:51.558Z,6.13
2022-09-20T01:09:18.163Z,3.35
2022-09-20T01:11:46.375Z,3.47
2022-09-20T01:14:17.173Z,2.53
2022-09-20T01:16:44.290Z,2.63
2022-09-20T01:19:33.634Z,5.78
2022-09-20T01:22:06.931Z,4.70
2022-09-20T01:24:47.565Z,5.25
2022-09-20T01:27:43.245Z,6.90
2022-09-20T01:30:14.542Z,2.33
2022-09-20T01:32:43.991Z,2.65
2022-09-20T01:35:12.239Z,2.72
2022-09-20T01:37:38.721Z,5.05
2022-09-20T01:40:36.164Z,3.42
2022-09-20T01:43:29.313Z,4.68
2022-09-20T01:46:02.636Z,2.97
2022-09-20T01:48:40.086Z,5.28
2022-09-20T01:51:09.679Z,4.30
2022-09-20T01:54:03.747Z,4.13
2022-09-20T01:56:38.836Z,3.65
2022-09-20T01:59:24.167Z,3.00
2022-09-20T02:01:54.205Z,5.05
2022-09-20T02:04:26.749Z,7.57
2022-09-20T02:07:16.536Z,4.95
2022-09-20T02:10:01.160Z,1.92
2022-09-20T02:12:50.313Z,2.78
2022-09-20T02:15:54.386Z,2.92
2022-09-20T02:18:48.730Z,4.18
2022-09-20T02:21:35.571Z,4.85
2022-09-20T02:24:27.225Z,2.85
2022-09-20T02:27:28.810Z,6.13
2022-09-20T02:30:27.378Z,3.83
2022-09-20T02:33:18.108Z,3.03
2022-09-20T02:35:55.247Z,3.22
2022-09-20T02:38:59.117Z,2.15
2022-09-20T02:41:47.347Z,6.22
2022-09-20T02:44:38.693Z,5.13
2022-09-20T02:47:43.308Z,4.32
2022-09-20T02:50:38.491Z,4.05
2022-09-20T02:53:24.138Z,2.17
2022-09-20T02:56:04.775Z,3.70
2022-09-20T02:59:05.240Z,5.60
2022-09-20T03:01:50.509Z,5.53
2022-09-20T03:04:45.396Z,3.65
2022-09-20T03:07:56.362Z,3.45
2022-09-20T03:10:36.900Z,3.92
2022-09-20T03:13:35.152Z,5.07
2022-09-20T03:16:31.223Z,4.30
2022-09-20T03:19:15.552Z,3.95
2022-09-20T03:22:26.454Z,6.78
2022-09-20T03:25:24.366Z,6.28
2022-09-20T03:27:56.382Z,4.82
2022-09-20T03:30:53.544Z,7.13
2022-09-20T03:33:44.119Z,6.78
2022-09-20T03:36:28.366Z,2.65
2022-09-20T03:39:25.448Z,4.13
2022-09-20T03:42:17.655Z,2.30
2022-09-20T03:45:05.926Z,2.45
2022-09-20T03:47:35.131Z,2.33
2022-09-20T03:50:18.508Z,4.20
2022-09-20T03:52:55.753Z,7.03
2022-09-20T03:55:56.108Z,3.08
2022-09-20T03:58:29.106Z,3.20
2022-09-20T04:01:28.310Z,3.22
2022-09-20T04:04:12.515Z,3.03
2022-09-20T04:06:54.090Z,6.65
2022-09-20T04:09:43.836Z,5.53
2022-09-20T04:12:27.949Z,3.83
2022-09-20T04:15:20.977Z,2.67
2022-09-20T04:18:24.874Z,3.55
2022-09-20T04:21:22.915Z,3.30
2022-09-20T04:24:12.517Z,6.00
2022-09-20T04:26:47.174Z,2.45
2022-09-20T04:29:36.406Z,5.18
2022-09-20T04:32:10.521Z,5.78
2022-09-20T04:35:25.547Z,5.95
2022-09-20T04:37:53.627Z,4.38
2022-09-20T04:40:34.763Z,3.65
2022-09-20T04:43:07.404Z,3.67
2022-09-20T04:46:11.376Z,4.95
2022-09-20T04:49:00.914Z,5.25
2022-09-20T04:51:48.768Z,4.32
2022-09-20T04:54:53.789Z,3.40
2022-09-20T04:57:23.582Z,4.07
2022-09-20T05:00:05.479Z,13.77
2022-09-20T05:02:40.138Z,3.70
2022-09-20T05:05:25.135Z,4.15
2022-09-20T05:08:10.835Z,3.42
2022-09-20T05:10:49.235Z,5.07
2022-09-20T05:13:28.619Z,4.00
2022-09-20T05:16:24.011Z,4.65
2022-09-20T05:19:05.390Z,3.53
2022-09-20T05:21:50.660Z,5.55
2022-09-20T05:24:40.709Z,4.03
2022-09-20T05:27:19.721Z,4.03
2022-09-20T05:30:05.369Z,4.13
2022-09-20T05:32:52.011Z,2.88
2022-09-20T05:38:16.775Z,3.42
2022-09-20T05:41:07.661Z,3.38
2022-09-20T05:43:43.737Z,4.35
2022-09-20T05:46:22.332Z,6.30
2022-09-20T05:49:03.926Z,7.63
2022-09-20T05:52:05.703Z,5.38
2022-09-20T05:54:47.482Z,9.70
2022-09-20T05:57:37.208Z,8.43
2022-09-20T06:00:14.565Z,4.35
2022-09-20T06:02:41.129Z,8.23
2022-09-20T06:05:19.393Z,5.57
2022-09-20T06:08:12.875Z,3.90
2022-09-20T06:11:02.445Z,8.25
2022-09-20T06:14:00.728Z,4.78
2022-09-20T06:17:07.787Z,5.25
2022-09-20T06:19:45.733Z,4.75
2022-09-20T06:22:36.690Z,4.50
2022-09-20T06:25:26.809Z,4.35
2022-09-20T06:27:58.080Z,5.82
2022-09-20T06:30:27.227Z,4.80
2022-09-20T06:33:05.971Z,3.20
2022-09-20T06:35:42.956Z,5.57
2022-09-20T06:38:31.309Z,3.92
2022-09-20T06:41:01.011Z,5.10
2022-09-20T06:43:29.238Z,3.25
2022-09-20T06:45:58.111Z,4.80
2022-09-20T06:48:25.270Z,3.72
2022-09-20T06:50:52.417Z,6.72
2022-09-20T06:53:29.778Z,3.38
2022-09-20T06:55:57.529Z,7.75
2022-09-20T06:58:24.076Z,5.85
2022-09-20T07:00:50.897Z,3.20
2022-09-20T07:03:19.615Z,3.03
2022-09-20T07:05:46.498Z,4.50
2022-09-20T07:08:14.513Z,4.38
2022-09-20T07:10:41.560Z,4.50
2022-09-20T07:13:11.192Z,3.92
2022-09-20T07:15:38.822Z,5.18
2022-09-20T07:18:05.903Z,5.03
2022-09-20T07:20:32.853Z,6.43
2022-09-20T07:22:59.857Z,4.85
2022-09-20T07:25:26.484Z,4.28
2022-09-20T07:27:53.105Z,4.28
2022-09-20T07:30:20.341Z,3.58
2022-09-20T07:32:47.016Z,2.70
2022-09-20T07:35:13.899Z,2.95
2022-09-20T07:37:42.823Z,3.17
2022-09-20T07:40:11.354Z,3.03
2022-09-20T07:42:38.126Z,2.45
2022-09-20T07:45:05.230Z,3.13
2022-09-20T07:47:33.158Z,5.95
2022-09-20T07:49:59.774Z,7.30
2022-09-20T07:52:27.634Z,6.10
2022-09-20T07:54:54.428Z,5.30
2022-09-20T07:57:20.985Z,3.50
2022-09-20T07:59:47.616Z,3.42
2022-09-20T08:02:16.010Z,3.85
2022-09-20T08:04:43.351Z,5.20
2022-09-20T08:07:10.916Z,3.90
2022-09-20T08:09:37.483Z,6.93
2022-09-20T08:14:53.329Z,8.48
2022-09-20T08:17:20.011Z,6.93
2022-09-20T08:19:46.628Z,7.55
2022-09-20T08:22:14.836Z,3.67
2022-09-20T08:24:41.398Z,3.75
2022-09-20T08:27:09.046Z,4.25
2022-09-20T08:29:35.971Z,4.32
2022-09-20T08:32:03.321Z,7.07
2022-09-20T08:34:29.986Z,3.40
2022-09-20T08:36:56.968Z,7.40
2022-09-20T08:42:22.284Z,5.05
2022-09-20T08:45:00.185Z,4.88
2022-09-20T08:47:36.793Z,2.95
2022-09-20T08:50:11.588Z,3.00
2022-09-20T08:52:41.410Z,4.53
2022-09-20T08:55:17.943Z,3.17
2022-09-20T08:57:49.256Z,5.22
2022-09-20T09:00:21.988Z,4.70
2022-09-20T09:02:54.191Z,3.88
2022-09-20T09:05:43.579Z,4.60
2022-09-20T09:08:17.048Z,5.90
2022-09-20T09:10:51.404Z,4.00
2022-09-20T09:13:34.934Z,5.28
2022-09-20T09:16:09.935Z,3.50
2022-09-20T09:18:42.027Z,3.45
2022-09-20T09:21:10.509Z,3.72
2022-09-20T09:23:41.495Z,5.43
2022-09-20T09:26:17.622Z,5.47
2022-09-20T09:28:44.199Z,3.80
2022-09-20T09:31:23.376Z,3.38
2022-09-20T09:33:50.049Z,7.68
2022-09-20T09:36:23.602Z,7.60
2022-09-20T09:38:50.555Z,3.38
2022-09-20T09:41:29.897Z,4.47
2022-09-20T09:44:20.740Z,3.45
2022-09-20T09:46:50.188Z,5.78
2022-09-20T09:49:22.771Z,4.07
2022-09-20T09:52:26.901Z,1.77
2022-09-20T09:55:04.012Z,5.47
2022-09-20T09:57:55.048Z,3.95
2022-09-20T10:00:28.127Z,4.07
2022-09-20T10:03:18.084Z,4.55
2022-09-20T10:06:01.872Z,3.65
2022-09-20T10:08:40.938Z,4.22
2022-09-20T10:11:48.119Z,6.93
2022-09-20T10:14:24.052Z,3.88
2022-09-20T10:19:35.076Z,3.60
2022-09-20T10:22:20.452Z,2.70
2022-09-20T10:25:26.239Z,5.40
2022-09-20T10:28:39.171Z,3.05
2022-09-20T10:31:24.997Z,4.47
2022-09-20T10:34:07.574Z,5.50
2022-09-20T10:36:34.231Z,7.28
2022-09-20T10:39:11.015Z,5.05
2022-09-20T10:41:58.777Z,6.25
2022-09-20T10:44:47.208Z,14.25
2022-09-20T10:47:20.447Z,7.32
2022-09-20T10:50:09.219Z,11.82
2022-09-20T10:52:51.271Z,5.50
2022-09-20T10:55:47.481Z,9.15
2022-09-20T10:58:33.523Z,9.57
2022-09-20T11:01:08.700Z,3.92
2022-09-20T11:04:01.195Z,6.00
2022-09-20T11:06:44.239Z,4.60
2022-09-20T11:09:17.594Z,7.15
2022-09-20T11:11:49.484Z,6.00
2022-09-20T11:14:21.757Z,5.95
2022-09-20T11:16:53.440Z,5.38
2022-09-20T11:19:44.519Z,8.82
2022-09-20T11:22:34.822Z,7.03
2022-09-20T11:25:23.976Z,4.40
2022-09-20T11:28:02.281Z,3.50
2022-09-20T11:30:30.395Z,5.55
2022-09-20T11:32:59.774Z,5.95
2022-09-20T11:35:41.298Z,7.07
2022-09-20T11:38:22.418Z,8.32
2022-09-20T11:41:02.500Z,11.73
2022-09-20T11:43:31.162Z,8.90
2022-09-20T11:46:06.934Z,4.78
2022-09-20T11:48:46.539Z,6.13
2022-09-20T11:51:35.734Z,9.57
2022-09-20T11:54:20.038Z,3.40
2022-09-20T11:56:57.992Z,6.03
2022-09-20T11:59:35.386Z,7.90
2022-09-20T12:02:05.458Z,8.23
2022-09-20T12:04:35.712Z,4.03
2022-09-20T12:07:11.559Z,6.57
2022-09-20T12:09:43.735Z,9.23
2022-09-20T12:12:31.486Z,5.75
2022-09-20T12:15:01.180Z,7.47
2022-09-20T12:17:45.759Z,3.53
2022-09-20T12:20:42.575Z,10.88
2022-09-20T12:23:43.488Z,10.45
2022-09-20T12:26:22.048Z,11.05
2022-09-20T12:28:52.901Z,12.52
2022-09-20T12:31:21.566Z,3.35
2022-09-20T12:34:00.144Z,3.83
2022-09-20T12:36:29.690Z,12.20
2022-09-20T12:39:05.445Z,8.90
2022-09-20T12:42:10.557Z,8.93
2022-09-20T12:45:27.479Z,20.67
2022-09-20T12:47:56.085Z,16.92
2022-09-20T12:50:42.435Z,13.35
2022-09-20T12:53:16.828Z,6.25
2022-09-20T12:56:07.705Z,6.20
2022-09-20T12:58:51.534Z,5.07
2022-09-20T13:01:18.518Z,8.25
2022-09-20T13:03:50.517Z,17.63
2022-09-20T13:06:20.468Z,6.50
2022-09-20T13:09:04.986Z,13.27
2022-09-20T13:11:52.835Z,18.85
2022-09-20T13:14:29.007Z,15.13
2022-09-20T13:17:17.855Z,8.38
2022-09-20T13:19:49.951Z,7.18
2022-09-20T13:22:23.773Z,5.45
2022-09-20T13:24:55.230Z,3.95
2022-09-20T13:27:30.133Z,3.35
2022-09-20T13:30:32.682Z,3.88
2022-09-20T13:33:23.490Z,2.92
2022-09-20T13:35:58.232Z,4.72
2022-09-20T13:38:33.954Z,3.95
2022-09-20T13:41:09.112Z,3.60
2022-09-20T13:43:44.471Z,5.07
2022-09-20T13:46:22.427Z,4.18
2022-09-20T13:48:54.482Z,3.80
2022-09-20T13:51:28.430Z,4.55
2022-09-20T13:54:34.266Z,5.20
2022-09-20T13:57:04.179Z,4.25
2022-09-20T13:59:42.150Z,4.38
2022-09-20T14:02:22.474Z,3.78
2022-09-20T14:04:51.425Z,5.38
2022-09-20T14:07:18.181Z,6.82
2022-09-20T14:09:45.743Z,9.15
2022-09-20T14:12:14.134Z,9.63
2022-09-20T14:14:41.795Z,7.47
2022-09-20T14:17:09.886Z,5.70
2022-09-20T14:19:42.170Z,9.40
2022-09-20T14:22:18.361Z,6.65
2022-09-20T14:25:02.355Z,12.15
2022-09-20T14:27:31.236Z,12.30
2022-09-20T14:29:58.615Z,8.55
2022-09-20T14:32:34.369Z,7.35
2022-09-20T14:37:45.677Z,7.05
2022-09-20T14:40:30.518Z,16.02
2022-09-20T14:43:00.815Z,12.98
2022-09-20T14:45:35.879Z,12.68
2022-09-20T14:48:11.233Z,16.17
2022-09-20T14:51:16.381Z,28.67
2022-09-20T14:53:44.168Z,26.67
2022-09-20T14:56:12.955Z,33.42
2022-09-20T14:59:06.720Z,30.58
2022-09-20T15:01:35.955Z,42.97
2022-09-20T15:04:08.887Z,41.97
2022-09-20T15:06:39.030Z,42.08
2022-09-20T15:09:06.228Z,35.42
2022-09-20T15:11:32.990Z,27.30
2022-09-20T15:13:59.794Z,18.40
2022-09-20T15:16:28.645Z,15.25
2022-09-20T15:18:56.249Z,11.85
2022-09-20T15:21:22.843Z,10.63
2022-09-20T15:23:49.407Z,9.63
2022-09-20T15:26:16.798Z,10.40
2022-09-20T15:28:43.354Z,11.40
2022-09-20T15:31:10.491Z,8.98
2022-09-20T15:33:37.736Z,14.68
2022-09-20T15:36:04.934Z,14.93
2022-09-20T15:38:31.568Z,11.18
2022-09-20T15:41:01.751Z,8.45
2022-09-20T15:43:31.073Z,10.55
2022-09-20T15:46:16.766Z,15.48
2022-09-20T15:48:43.562Z,18.00
2022-09-20T15:51:12.208Z,15.95
2022-09-20T15:53:44.788Z,13.90
2022-09-20T15:56:21.140Z,15.90
2022-09-20T15:58:59.057Z,13.38
2022-09-20T16:01:33.741Z,17.17
2022-09-20T16:04:00.598Z,20.50
2022-09-20T16:06:27.249Z,27.10
2022-09-20T16:08:55.665Z,32.22
2022-09-20T16:11:23.795Z,48.08
2022-09-20T16:13:58.273Z,59.17
2022-09-20T16:16:26.972Z,59.92
2022-09-20T16:19:12.188Z,56.65
2022-09-20T16:21:40.605Z,51.70
2022-09-20T16:24:08.447Z,45.22
2022-09-20T16:26:36.193Z,42.30
2022-09-20T16:29:05.812Z,33.30
2022-09-20T16:31:41.081Z,33.72
2022-09-20T16:34:11.859Z,34.80
2022-09-20T16:36:38.922Z,30.90
2022-09-20T16:39:05.467Z,29.45
2022-09-20T16:41:32.505Z,22.45
2022-09-20T16:43:59.992Z,30.80
2022-09-20T16:46:28.481Z,30.25
2022-09-20T16:48:56.964Z,20.02
2022-09-20T16:51:26.085Z,13.55
2022-09-20T16:53:56.239Z,12.13
2022-09-20T16:56:27.562Z,10.00
2022-09-20T16:58:57.442Z,9.75
2022-09-20T17:01:24.239Z,11.73
2022-09-20T17:03:51.832Z,10.15
2022-09-20T17:06:19.279Z,11.30
2022-09-20T17:08:48.704Z,8.25
2022-09-20T17:11:40.890Z,10.95
2022-09-20T17:14:09.203Z,7.45
2022-09-20T17:16:38.322Z,10.52
2022-09-20T17:19:07.992Z,9.45
2022-09-20T17:21:37.253Z,5.70
2022-09-20T17:24:07.161Z,7.65
2022-09-20T17:26:40.385Z,7.40
2022-09-20T17:29:09.511Z,9.82
2022-09-20T17:31:39.146Z,7.28
2022-09-20T17:34:09.575Z,8.93
2022-09-20T17:36:44.390Z,9.95
2022-09-20T17:39:14.463Z,10.82
2022-09-20T17:41:42.948Z,8.85
2022-09-20T17:44:15.941Z,39.03
2022-09-20T17:46:44.659Z,24.85
2022-09-20T17:49:14.056Z,33.88
2022-09-20T17:51:55.969Z,26.63
2022-09-20T17:54:24.598Z,24.67
2022-09-20T17:56:53.884Z,23.25
2022-09-20T17:59:20.804Z,26.77
2022-09-20T18:01:50.015Z,20.33
2022-09-20T18:04:16.970Z,73.68
2022-09-20T18:06:51.318Z,59.22
2022-09-20T18:09:24.228Z,43.13
2022-09-20T18:11:53.101Z,42.10
2022-09-20T18:14:25.968Z,39.83
2022-09-20T18:16:55.121Z,38.13
2022-09-20T18:19:22.887Z,25.42
2022-09-20T18:21:50.071Z,16.20
2022-09-20T18:24:16.854Z,13.95
2022-09-20T18:26:44.275Z,19.20
2022-09-20T18:29:12.517Z,17.30
2022-09-20T18:31:46.931Z,18.15
2022-09-20T18:34:17.986Z,17.00
2022-09-20T18:36:52.600Z,18.95
2022-09-20T18:39:23.117Z,16.30
2022-09-20T18:41:50.557Z,12.52
2022-09-20T18:44:19.060Z,13.57
2022-09-20T18:46:46.398Z,14.95
2022-09-20T18:49:15.148Z,12.10
2022-09-20T18:51:43.329Z,12.00
2022-09-20T18:54:11.217Z,13.00
2022-09-20T18:56:39.968Z,16.15
2022-09-20T18:59:18.614Z,18.70
2022-09-20T19:01:58.401Z,23.10
2022-09-20T19:04:40.799Z,17.38
2022-09-20T19:07:29.871Z,17.90
2022-09-20T19:10:05.677Z,14.20
2022-09-20T19:12:51.775Z,22.35
2022-09-20T19:15:24.450Z,22.23
2022-09-20T19:18:14.819Z,20.60
2022-09-20T19:21:04.292Z,18.00
2022-09-20T19:23:41.050Z,17.08
2022-09-20T19:26:21.148Z,12.15
2022-09-20T19:28:55.116Z,12.75
2022-09-20T19:31:28.439Z,10.30
2022-09-20T19:33:56.910Z,10.73
2022-09-20T19:36:25.330Z,14.82
2022-09-20T19:39:10.184Z,10.18
2022-09-20T19:41:50.675Z,13.68
2022-09-20T19:44:36.045Z,12.43
2022-09-20T19:47:37.403Z,13.95
2022-09-20T19:50:44.804Z,21.13
2022-09-20T19:53:12.411Z,18.58
2022-09-20T19:55:39.749Z,16.27
2022-09-20T19:58:06.677Z,13.35
2022-09-20T20:00:33.576Z,12.98
2022-09-20T20:03:00.526Z,12.93
2022-09-20T20:05:29.255Z,14.32
2022-09-20T20:07:55.818Z,12.05
2022-09-20T20:10:40.693Z,12.38
2022-09-20T20:13:47.714Z,13.80
2022-09-20T20:16:30.889Z,13.23
2022-09-20T20:19:24.938Z,15.23
2022-09-20T20:22:03.343Z,12.25
2022-09-20T20:24:56.755Z,10.38
2022-09-20T20:27:26.230Z,11.80
2022-09-20T20:29:52.781Z,9.13
2022-09-20T20:32:19.346Z,12.25
2022-09-20T20:34:47.009Z,9.88
2022-09-20T20:37:13.998Z,9.75
2022-09-20T20:39:40.558Z,10.55
2022-09-20T20:42:08.554Z,9.93
2022-09-20T20:44:35.273Z,8.38
2022-09-20T20:47:08.120Z,9.85
2022-09-20T20:49:36.017Z,9.10
2022-09-20T20:52:04.919Z,10.13
2022-09-20T20:54:32.695Z,9.25
2022-09-20T20:57:01.831Z,11.18
2022-09-20T20:59:28.491Z,9.38
2022-09-20T21:01:55.104Z,11.60
2022-09-20T21:04:22.027Z,11.27
2022-09-20T21:06:50.182Z,12.18
2022-09-20T21:09:16.878Z,16.35
2022-09-20T21:11:44.550Z,14.43
2022-09-20T21:14:12.659Z,15.52
2022-09-20T21:16:45.148Z,14.90
2022-09-20T21:19:18.337Z,16.08
2022-09-20T21:21:47.851Z,15.00
2022-09-20T21:24:17.384Z,15.45
2022-09-20T21:26:46.333Z,12.90
2022-09-20T21:29:15.690Z,15.02
2022-09-20T21:31:44.691Z,14.32
2022-09-20T21:34:12.660Z,16.45
2022-09-20T21:36:41.593Z,17.02
2022-09-20T21:39:08.394Z,12.75
2022-09-20T21:41:38.341Z,13.85
2022-09-20T21:44:12.269Z,16.00
2022-09-20T21:46:41.991Z,22.77
2022-09-20T21:49:11.030Z,15.27
2022-09-20T21:51:38.783Z,11.85
2022-09-20T21:54:05.831Z,14.75
2022-09-20T21:56:35.368Z,13.13
2022-09-20T21:59:04.121Z,13.77
2022-09-20T22:01:36.182Z,13.65
2022-09-20T22:04:12.385Z,13.48
2022-09-20T22:09:16.024Z,13.68
2022-09-20T22:11:47.681Z,15.10
2022-09-20T22:14:17.462Z,17.83
2022-09-20T22:16:46.001Z,19.55
2022-09-20T22:19:15.106Z,14.20
2022-09-20T22:21:44.060Z,14.20
2022-09-20T22:24:12.442Z,15.40
2022-09-20T22:26:43.433Z,14.02
2022-09-20T22:29:10.367Z,15.07
2022-09-20T22:31:45.107Z,13.75
2022-09-20T22:34:17.607Z,14.15
2022-09-20T22:36:44.762Z,20.25
2022-09-20T22:39:13.364Z,18.48
2022-09-20T22:41:41.465Z,18.52
2022-09-20T22:44:09.172Z,18.40
2022-09-20T22:46:36.538Z,16.00
2022-09-20T22:49:07.355Z,17.25
2022-09-20T22:51:34.403Z,14.75
2022-09-20T22:54:05.483Z,18.00
2022-09-20T22:56:33.093Z,17.88
2022-09-20T22:59:11.517Z,18.67
2022-09-20T23:01:43.633Z,16.52
2022-09-20T23:04:19.738Z,18.98
2022-09-20T23:06:55.094Z,16.90
2022-09-20T23:09:27.914Z,17.35
2022-09-20T23:11:54.540Z,14.65
2022-09-20T23:14:22.165Z,14.88
2022-09-20T23:16:49.578Z,14.52
2022-09-20T23:19:16.748Z,16.15
2022-09-20T23:21:44.110Z,14.63
2022-09-20T23:24:13.347Z,12.60
2022-09-20T23:26:41.442Z,15.35
2022-09-20T23:29:12.974Z,16.65
2022-09-20T23:31:45.819Z,15.77
2022-09-20T23:34:13.664Z,15.13
2022-09-20T23:36:41.459Z,14.45
2022-09-20T23:39:10.302Z,14.10
2022-09-20T23:41:37.402Z,14.15
2022-09-20T23:44:10.279Z,13.45
2022-09-20T23:46:38.593Z,18.15
2022-09-20T23:49:06.536Z,14.50
2022-09-20T23:51:35.334Z,18.15
2022-09-20T23:54:02.766Z,15.70
2022-09-20T23:56:30.100Z,13.48
2022-09-20T23:58:56.743Z,14.85
